sensor_id;sensor_type;location;lat;lon;timestamp;pressure;altitude;pressure_sealevel;temperature
63689;BMP280;54895;40.928;14.480;2024-03-07T00:00:57;101478.03;;;16.95
63689;BMP280;54895;40.928;14.480;2024-03-07T00:03:26;101479.66;;;19.95
63689;BMP280;54895;40.928;14.480;2024-03-07T00:05:52;101480.50;;;18.47
63689;BMP280;54895;40.928;14.480;2024-03-07T00:08:19;101474.75;;;18.75
63689;BMP280;54895;40.928;14.480;2024-03-07T00:10:45;101471.56;;;18.37
63689;BMP280;54895;40.928;14.480;2024-03-07T00:13:12;101454.28;;;15.63
63689;BMP280;54895;40.928;14.480;2024-03-07T00:15:39;101441.66;;;16.94
63689;BMP280;54895;40.928;14.480;2024-03-07T00:21:43;101482.09;;;20.17
63689;BMP280;54895;40.928;14.480;2024-03-07T00:24:09;101487.50;;;20.17
63689;BMP280;54895;40.928;14.480;2024-03-07T00:26:36;101481.06;;;18.70
63689;BMP280;54895;40.928;14.480;2024-03-07T00:29:03;101465.09;;;17.46
63689;BMP280;54895;40.928;14.480;2024-03-07T00:31:29;101469.56;;;17.66
63689;BMP280;54895;40.928;14.480;2024-03-07T00:33:56;101466.91;;;17.51
63689;BMP280;54895;40.928;14.480;2024-03-07T00:36:22;101470.28;;;18.70
63689;BMP280;54895;40.928;14.480;2024-03-07T00:38:48;101483.44;;;20.35
63689;BMP280;54895;40.928;14.480;2024-03-07T00:41:14;101475.28;;;17.70
63689;BMP280;54895;40.928;14.480;2024-03-07T00:43:43;101465.44;;;17.65
63689;BMP280;54895;40.928;14.480;2024-03-07T00:46:09;101472.25;;;17.66
63689;BMP280;54895;40.928;14.480;2024-03-07T00:48:37;101475.88;;;18.40
63689;BMP280;54895;40.928;14.480;2024-03-07T00:51:04;101477.13;;;18.07
63689;BMP280;54895;40.928;14.480;2024-03-07T00:53:30;101479.44;;;20.63
63689;BMP280;54895;40.928;14.480;2024-03-07T00:55:57;101486.66;;;20.60
63689;BMP280;54895;40.928;14.480;2024-03-07T00:58:23;101482.06;;;18.81
63689;BMP280;54895;40.928;14.480;2024-03-07T01:00:50;101467.88;;;18.81
63689;BMP280;54895;40.928;14.480;2024-03-07T01:03:17;101471.53;;;19.34
63689;BMP280;54895;40.928;14.480;2024-03-07T01:05:43;101452.94;;;17.15
63689;BMP280;54895;40.928;14.480;2024-03-07T01:08:10;101434.34;;;15.43
63689;BMP280;54895;40.928;14.480;2024-03-07T01:10:37;101421.69;;;15.31
63689;BMP280;54895;40.928;14.480;2024-03-07T01:13:03;101420.69;;;15.13
63689;BMP280;54895;40.928;14.480;2024-03-07T01:15:32;101431.34;;;14.85
63689;BMP280;54895;40.928;14.480;2024-03-07T01:21:36;101451.81;;;20.02
63689;BMP280;54895;40.928;14.480;2024-03-07T01:24:04;101450.72;;;19.78
63689;BMP280;54895;40.928;14.480;2024-03-07T01:26:31;101452.53;;;21.78
63689;BMP280;54895;40.928;14.480;2024-03-07T01:28:59;101458.97;;;21.64
63689;BMP280;54895;40.928;14.480;2024-03-07T01:31:26;101455.91;;;21.29
63689;BMP280;54895;40.928;14.480;2024-03-07T01:33:53;101442.78;;;21.07
63689;BMP280;54895;40.928;14.480;2024-03-07T01:36:20;101432.88;;;19.92
63689;BMP280;54895;40.928;14.480;2024-03-07T01:38:47;101417.75;;;17.50
63689;BMP280;54895;40.928;14.480;2024-03-07T01:41:14;101429.66;;;19.77
63689;BMP280;54895;40.928;14.480;2024-03-07T01:43:41;101440.94;;;20.45
63689;BMP280;54895;40.928;14.480;2024-03-07T01:46:08;101428.66;;;19.04
63689;BMP280;54895;40.928;14.480;2024-03-07T01:48:37;101413.47;;;18.51
63689;BMP280;54895;40.928;14.480;2024-03-07T01:51:04;101419.41;;;19.75
63689;BMP280;54895;40.928;14.480;2024-03-07T01:53:31;101396.63;;;16.42
63689;BMP280;54895;40.928;14.480;2024-03-07T01:55:59;101410.91;;;19.18
63689;BMP280;54895;40.928;14.480;2024-03-07T01:58:26;101379.72;;;15.33
63689;BMP280;54895;40.928;14.480;2024-03-07T02:00:52;101379.97;;;15.22
63689;BMP280;54895;40.928;14.480;2024-03-07T02:03:19;101371.34;;;15.72
63689;BMP280;54895;40.928;14.480;2024-03-07T02:05:46;101392.59;;;18.59
63689;BMP280;54895;40.928;14.480;2024-03-07T02:08:12;101396.38;;;17.99
63689;BMP280;54895;40.928;14.480;2024-03-07T02:10:41;101410.16;;;20.31
63689;BMP280;54895;40.928;14.480;2024-03-07T02:13:08;101396.91;;;19.12
63689;BMP280;54895;40.928;14.480;2024-03-07T02:15:34;101390.53;;;18.67
63689;BMP280;54895;40.928;14.480;2024-03-07T02:18:01;101399.88;;;16.48
63689;BMP280;54895;40.928;14.480;2024-03-07T02:20:27;101401.25;;;17.46
63689;BMP280;54895;40.928;14.480;2024-03-07T02:22:54;101406.03;;;19.94
63689;BMP280;54895;40.928;14.480;2024-03-07T02:25:21;101413.34;;;20.56
63689;BMP280;54895;40.928;14.480;2024-03-07T02:27:48;101419.25;;;21.28
63689;BMP280;54895;40.928;14.480;2024-03-07T02:30:15;101417.00;;;21.25
63689;BMP280;54895;40.928;14.480;2024-03-07T02:32:41;101414.81;;;19.68
63689;BMP280;54895;40.928;14.480;2024-03-07T02:35:08;101405.69;;;17.59
63689;BMP280;54895;40.928;14.480;2024-03-07T02:37:35;101410.91;;;20.05
63689;BMP280;54895;40.928;14.480;2024-03-07T02:40:01;101397.75;;;16.99
63689;BMP280;54895;40.928;14.480;2024-03-07T02:42:29;101376.13;;;17.91
63689;BMP280;54895;40.928;14.480;2024-03-07T02:44:56;101380.09;;;18.22
63689;BMP280;54895;40.928;14.480;2024-03-07T02:47:24;101378.03;;;16.89
63689;BMP280;54895;40.928;14.480;2024-03-07T02:49:50;101367.63;;;16.41
63689;BMP280;54895;40.928;14.480;2024-03-07T02:52:17;101372.66;;;16.89
63689;BMP280;54895;40.928;14.480;2024-03-07T02:54:43;101371.91;;;17.18
63689;BMP280;54895;40.928;14.480;2024-03-07T02:57:10;101361.44;;;14.09
63689;BMP280;54895;40.928;14.480;2024-03-07T02:59:37;101363.53;;;16.62
63689;BMP280;54895;40.928;14.480;2024-03-07T03:02:04;101379.47;;;17.12
63689;BMP280;54895;40.928;14.480;2024-03-07T03:04:32;101375.44;;;18.22
63689;BMP280;54895;40.928;14.480;2024-03-07T03:06:59;101363.34;;;16.75
63689;BMP280;54895;40.928;14.480;2024-03-07T03:09:26;101380.13;;;18.39
63689;BMP280;54895;40.928;14.480;2024-03-07T03:11:54;101406.34;;;20.44
63689;BMP280;54895;40.928;14.480;2024-03-07T03:14:20;101403.16;;;21.49
63689;BMP280;54895;40.928;14.480;2024-03-07T03:16:47;101416.13;;;20.75
63689;BMP280;54895;40.928;14.480;2024-03-07T03:19:14;101409.56;;;17.73
63689;BMP280;54895;40.928;14.480;2024-03-07T03:21:41;101403.13;;;18.64
63689;BMP280;54895;40.928;14.480;2024-03-07T03:24:09;101410.34;;;19.03
63689;BMP280;54895;40.928;14.480;2024-03-07T03:26:35;101420.97;;;20.31
63689;BMP280;54895;40.928;14.480;2024-03-07T03:29:02;101398.16;;;17.97
63689;BMP280;54895;40.928;14.480;2024-03-07T03:31:28;101407.25;;;17.77
63689;BMP280;54895;40.928;14.480;2024-03-07T03:33:55;101394.72;;;15.08
63689;BMP280;54895;40.928;14.480;2024-03-07T03:36:22;101383.66;;;14.17
63689;BMP280;54895;40.928;14.480;2024-03-07T03:38:48;101382.53;;;18.03
63689;BMP280;54895;40.928;14.480;2024-03-07T03:41:16;101394.41;;;17.53
63689;BMP280;54895;40.928;14.480;2024-03-07T03:43:43;101393.28;;;19.34
63689;BMP280;54895;40.928;14.480;2024-03-07T03:46:11;101396.69;;;18.35
63689;BMP280;54895;40.928;14.480;2024-03-07T03:48:39;101398.94;;;18.22
63689;BMP280;54895;40.928;14.480;2024-03-07T03:51:07;101398.69;;;18.03
63689;BMP280;54895;40.928;14.480;2024-03-07T03:53:37;101395.63;;;20.17
63689;BMP280;54895;40.928;14.480;2024-03-07T03:56:04;101403.06;;;17.44
63689;BMP280;54895;40.928;14.480;2024-03-07T03:58:32;101411.84;;;20.81
63689;BMP280;54895;40.928;14.480;2024-03-07T04:00:58;101373.91;;;14.19
63689;BMP280;54895;40.928;14.480;2024-03-07T04:03:25;101381.84;;;18.27
63689;BMP280;54895;40.928;14.480;2024-03-07T04:05:52;101407.84;;;20.73
63689;BMP280;54895;40.928;14.480;2024-03-07T04:08:18;101417.81;;;19.46
63689;BMP280;54895;40.928;14.480;2024-03-07T04:10:46;101410.06;;;21.71
63689;BMP280;54895;40.928;14.480;2024-03-07T04:13:13;101419.66;;;20.68
63689;BMP280;54895;40.928;14.480;2024-03-07T04:15:40;101422.91;;;19.68
63689;BMP280;54895;40.928;14.480;2024-03-07T04:18:06;101400.06;;;18.43
63689;BMP280;54895;40.928;14.480;2024-03-07T04:20:33;101418.38;;;22.04
63689;BMP280;54895;40.928;14.480;2024-03-07T04:23:00;101408.94;;;17.97
63689;BMP280;54895;40.928;14.480;2024-03-07T04:25:28;101420.34;;;20.14
63689;BMP280;54895;40.928;14.480;2024-03-07T04:27:54;101403.69;;;19.38
63689;BMP280;54895;40.928;14.480;2024-03-07T04:30:21;101386.81;;;14.28
63689;BMP280;54895;40.928;14.480;2024-03-07T04:32:47;101383.13;;;19.08
63689;BMP280;54895;40.928;14.480;2024-03-07T04:35:14;101409.47;;;19.17
63689;BMP280;54895;40.928;14.480;2024-03-07T04:37:41;101377.03;;;17.39
63689;BMP280;54895;40.928;14.480;2024-03-07T04:40:08;101380.41;;;14.44
63689;BMP280;54895;40.928;14.480;2024-03-07T04:42:46;101410.38;;;18.30
63689;BMP280;54895;40.928;14.480;2024-03-07T04:45:13;101383.06;;;16.62
63689;BMP280;54895;40.928;14.480;2024-03-07T04:47:43;101385.66;;;18.89
63689;BMP280;54895;40.928;14.480;2024-03-07T04:50:14;101379.25;;;16.43
63689;BMP280;54895;40.928;14.480;2024-03-07T04:52:43;101395.16;;;15.40
63689;BMP280;54895;40.928;14.480;2024-03-07T04:55:10;101389.13;;;16.93
63689;BMP280;54895;40.928;14.480;2024-03-07T04:57:38;101386.91;;;17.44
63689;BMP280;54895;40.928;14.480;2024-03-07T05:00:15;101409.91;;;20.37
63689;BMP280;54895;40.928;14.480;2024-03-07T05:02:47;101389.00;;;16.03
63689;BMP280;54895;40.928;14.480;2024-03-07T05:05:15;101370.03;;;16.01
63689;BMP280;54895;40.928;14.480;2024-03-07T05:07:48;101366.59;;;17.97
63689;BMP280;54895;40.928;14.480;2024-03-07T05:10:18;101405.47;;;19.52
63689;BMP280;54895;40.928;14.480;2024-03-07T05:12:45;101427.00;;;19.86
63689;BMP280;54895;40.928;14.480;2024-03-07T05:15:12;101377.78;;;14.65
63689;BMP280;54895;40.928;14.480;2024-03-07T05:17:39;101400.50;;;18.32
63689;BMP280;54895;40.928;14.480;2024-03-07T05:20:08;101403.63;;;15.52
63689;BMP280;54895;40.928;14.480;2024-03-07T05:22:39;101385.41;;;14.81
63689;BMP280;54895;40.928;14.480;2024-03-07T05:25:16;101384.84;;;14.62
63689;BMP280;54895;40.928;14.480;2024-03-07T05:27:45;101382.53;;;18.03
63689;BMP280;54895;40.928;14.480;2024-03-07T05:30:12;101381.34;;;17.42
63689;BMP280;54895;40.928;14.480;2024-03-07T05:32:39;101390.91;;;17.13
63689;BMP280;54895;40.928;14.480;2024-03-07T05:35:06;101417.78;;;21.56
63689;BMP280;54895;40.928;14.480;2024-03-07T05:37:33;101416.53;;;20.26
63689;BMP280;54895;40.928;14.480;2024-03-07T05:40:00;101420.41;;;21.25
63689;BMP280;54895;40.928;14.480;2024-03-07T05:42:26;101423.91;;;19.46
63689;BMP280;54895;40.928;14.480;2024-03-07T05:44:53;101417.78;;;19.63
63689;BMP280;54895;40.928;14.480;2024-03-07T05:47:20;101406.88;;;19.70
63689;BMP280;54895;40.928;14.480;2024-03-07T05:49:47;101417.81;;;18.46
63689;BMP280;54895;40.928;14.480;2024-03-07T05:52:15;101406.31;;;17.20
63689;BMP280;54895;40.928;14.480;2024-03-07T05:54:41;101385.13;;;14.18
63689;BMP280;54895;40.928;14.480;2024-03-07T05:57:10;101389.19;;;16.05
63689;BMP280;54895;40.928;14.480;2024-03-07T05:59:38;101405.28;;;13.54
63689;BMP280;54895;40.928;14.480;2024-03-07T06:02:05;101432.53;;;13.39
63689;BMP280;54895;40.928;14.480;2024-03-07T06:04:32;101390.81;;;16.08
63689;BMP280;54895;40.928;14.480;2024-03-07T06:07:00;101402.00;;;16.64
63689;BMP280;54895;40.928;14.480;2024-03-07T06:09:26;101401.03;;;16.10
63689;BMP280;54895;40.928;14.480;2024-03-07T06:11:53;101401.66;;;16.46
63689;BMP280;54895;40.928;14.480;2024-03-07T06:14:19;101399.25;;;15.13
63689;BMP280;54895;40.928;14.480;2024-03-07T06:16:46;101396.91;;;15.38
63689;BMP280;54895;40.928;14.480;2024-03-07T06:19:13;101409.56;;;16.81
63689;BMP280;54895;40.928;14.480;2024-03-07T06:21:40;101401.25;;;16.27
63689;BMP280;54895;40.928;14.480;2024-03-07T06:24:09;101406.69;;;17.24
63689;BMP280;54895;40.928;14.480;2024-03-07T06:26:38;101415.69;;;16.89
63689;BMP280;54895;40.928;14.480;2024-03-07T06:29:12;101398.97;;;15.52
63689;BMP280;54895;40.928;14.480;2024-03-07T06:31:40;101408.59;;;15.76
63689;BMP280;54895;40.928;14.480;2024-03-07T06:34:07;101408.84;;;17.03
63689;BMP280;54895;40.928;14.480;2024-03-07T06:36:35;101417.78;;;17.35
63689;BMP280;54895;40.928;14.480;2024-03-07T06:39:02;101417.97;;;17.15
63689;BMP280;54895;40.928;14.480;2024-03-07T06:41:33;101438.81;;;19.13
63689;BMP280;54895;40.928;14.480;2024-03-07T06:44:00;101422.50;;;17.74
63689;BMP280;54895;40.928;14.480;2024-03-07T06:46:26;101449.69;;;20.72
63689;BMP280;54895;40.928;14.480;2024-03-07T06:48:53;101444.41;;;20.29
63689;BMP280;54895;40.928;14.480;2024-03-07T06:51:19;101426.34;;;17.96
63689;BMP280;54895;40.928;14.480;2024-03-07T06:53:46;101441.47;;;20.08
63689;BMP280;54895;40.928;14.480;2024-03-07T06:56:17;101456.66;;;23.12
63689;BMP280;54895;40.928;14.480;2024-03-07T06:58:43;101468.19;;;23.34
63689;BMP280;54895;40.928;14.480;2024-03-07T07:01:14;101468.53;;;20.98
63689;BMP280;54895;40.928;14.480;2024-03-07T07:03:44;101455.34;;;19.34
63689;BMP280;54895;40.928;14.480;2024-03-07T07:06:11;101465.34;;;19.41
63689;BMP280;54895;40.928;14.480;2024-03-07T07:08:38;101463.75;;;22.33
63689;BMP280;54895;40.928;14.480;2024-03-07T07:11:04;101472.72;;;22.06
63689;BMP280;54895;40.928;14.480;2024-03-07T07:13:31;101477.88;;;22.02
63689;BMP280;54895;40.928;14.480;2024-03-07T07:15:57;101486.50;;;21.41
63689;BMP280;54895;40.928;14.480;2024-03-07T07:18:24;101467.69;;;20.41
63689;BMP280;54895;40.928;14.480;2024-03-07T07:20:51;101484.97;;;20.55
63689;BMP280;54895;40.928;14.480;2024-03-07T07:23:20;101464.25;;;19.88
63689;BMP280;54895;40.928;14.480;2024-03-07T07:25:47;101460.78;;;18.37
63689;BMP280;54895;40.928;14.480;2024-03-07T07:28:13;101477.81;;;21.24
63689;BMP280;54895;40.928;14.480;2024-03-07T07:30:42;101466.94;;;19.61
63689;BMP280;54895;40.928;14.480;2024-03-07T07:33:08;101469.13;;;20.52
63689;BMP280;54895;40.928;14.480;2024-03-07T07:35:35;101451.91;;;19.68
63689;BMP280;54895;40.928;14.480;2024-03-07T07:38:01;101453.50;;;18.78
63689;BMP280;54895;40.928;14.480;2024-03-07T07:40:28;101451.34;;;21.03
63689;BMP280;54895;40.928;14.480;2024-03-07T07:42:57;101465.31;;;22.06
63689;BMP280;54895;40.928;14.480;2024-03-07T07:45:24;101476.06;;;23.62
63689;BMP280;54895;40.928;14.480;2024-03-07T07:47:51;101480.59;;;23.92
63689;BMP280;54895;40.928;14.480;2024-03-07T07:50:20;101484.84;;;22.65
63689;BMP280;54895;40.928;14.480;2024-03-07T07:52:57;101475.03;;;23.90
63689;BMP280;54895;40.928;14.480;2024-03-07T07:55:28;101489.19;;;25.43
63689;BMP280;54895;40.928;14.480;2024-03-07T07:57:56;101471.75;;;22.31
63689;BMP280;54895;40.928;14.480;2024-03-07T08:00:28;101469.38;;;22.77
63689;BMP280;54895;40.928;14.480;2024-03-07T08:02:56;101476.59;;;24.16
63689;BMP280;54895;40.928;14.480;2024-03-07T08:05:25;101480.66;;;22.95
63689;BMP280;54895;40.928;14.480;2024-03-07T08:07:57;101482.59;;;23.04
63689;BMP280;54895;40.928;14.480;2024-03-07T08:10:25;101486.41;;;21.98
63689;BMP280;54895;40.928;14.480;2024-03-07T08:12:55;101485.38;;;22.13
63689;BMP280;54895;40.928;14.480;2024-03-07T08:15:21;101492.16;;;21.93
63689;BMP280;54895;40.928;14.480;2024-03-07T08:17:49;101492.78;;;21.82
63689;BMP280;54895;40.928;14.480;2024-03-07T08:20:19;101489.50;;;21.55
63689;BMP280;54895;40.928;14.480;2024-03-07T08:22:47;101488.06;;;21.54
63689;BMP280;54895;40.928;14.480;2024-03-07T08:25:14;101490.56;;;21.90
63689;BMP280;54895;40.928;14.480;2024-03-07T08:27:42;101485.75;;;20.12
63689;BMP280;54895;40.928;14.480;2024-03-07T08:30:10;101476.38;;;20.49
63689;BMP280;54895;40.928;14.480;2024-03-07T08:32:41;101472.25;;;21.03
63689;BMP280;54895;40.928;14.480;2024-03-07T08:35:08;101475.31;;;20.35
63689;BMP280;54895;40.928;14.480;2024-03-07T08:37:36;101468.38;;;19.45
63689;BMP280;54895;40.928;14.480;2024-03-07T08:40:04;101460.88;;;19.19
63689;BMP280;54895;40.928;14.480;2024-03-07T08:42:33;101465.03;;;19.71
63689;BMP280;54895;40.928;14.480;2024-03-07T08:45:01;101494.25;;;24.63
63689;BMP280;54895;40.928;14.480;2024-03-07T08:47:34;101488.03;;;24.49
63689;BMP280;54895;40.928;14.480;2024-03-07T08:50:02;101490.78;;;24.26
63689;BMP280;54895;40.928;14.480;2024-03-07T08:52:32;101493.91;;;23.21
63689;BMP280;54895;40.928;14.480;2024-03-07T08:54:59;101496.00;;;25.17
63689;BMP280;54895;40.928;14.480;2024-03-07T08:57:25;101466.47;;;17.77
63689;BMP280;54895;40.928;14.480;2024-03-07T08:59:52;101483.22;;;23.46
63689;BMP280;54895;40.928;14.480;2024-03-07T09:02:18;101480.41;;;22.39
63689;BMP280;54895;40.928;14.480;2024-03-07T09:04:45;101449.50;;;18.63
63689;BMP280;54895;40.928;14.480;2024-03-07T09:07:12;101471.91;;;19.65
63689;BMP280;54895;40.928;14.480;2024-03-07T09:09:41;101448.72;;;20.96
63689;BMP280;54895;40.928;14.480;2024-03-07T09:12:11;101441.09;;;19.00
63689;BMP280;54895;40.928;14.480;2024-03-07T09:14:38;101443.78;;;19.24
63689;BMP280;54895;40.928;14.480;2024-03-07T09:17:06;101458.13;;;19.44
63689;BMP280;54895;40.928;14.480;2024-03-07T09:19:32;101469.69;;;22.93
63689;BMP280;54895;40.928;14.480;2024-03-07T09:21:59;101482.97;;;24.09
63689;BMP280;54895;40.928;14.480;2024-03-07T09:24:26;101479.47;;;25.02
63689;BMP280;54895;40.928;14.480;2024-03-07T09:26:54;101482.59;;;24.37
63689;BMP280;54895;40.928;14.480;2024-03-07T09:29:23;101478.88;;;23.53
63689;BMP280;54895;40.928;14.480;2024-03-07T09:31:49;101495.88;;;20.83
63689;BMP280;54895;40.928;14.480;2024-03-07T09:34:18;101494.63;;;21.13
63689;BMP280;54895;40.928;14.480;2024-03-07T09:36:50;101491.22;;;21.22
63689;BMP280;54895;40.928;14.480;2024-03-07T09:39:18;101484.97;;;20.55
63689;BMP280;54895;40.928;14.480;2024-03-07T09:41:45;101479.44;;;20.72
63689;BMP280;54895;40.928;14.480;2024-03-07T09:44:15;101479.72;;;20.76
63689;BMP280;54895;40.928;14.480;2024-03-07T09:46:55;101488.47;;;20.48
63689;BMP280;54895;40.928;14.480;2024-03-07T09:49:25;101488.94;;;21.28
63689;BMP280;54895;40.928;14.480;2024-03-07T09:51:52;101486.41;;;21.98
63689;BMP280;54895;40.928;14.480;2024-03-07T09:54:21;101488.84;;;25.62
63689;BMP280;54895;40.928;14.480;2024-03-07T09:56:53;101500.72;;;24.81
63689;BMP280;54895;40.928;14.480;2024-03-07T09:59:20;101497.13;;;24.42
63689;BMP280;54895;40.928;14.480;2024-03-07T10:01:54;101507.72;;;23.69
63689;BMP280;54895;40.928;14.480;2024-03-07T10:04:29;101502.81;;;22.70
63689;BMP280;54895;40.928;14.480;2024-03-07T10:06:56;101502.97;;;23.14
63689;BMP280;54895;40.928;14.480;2024-03-07T10:09:23;101495.22;;;23.75
63689;BMP280;54895;40.928;14.480;2024-03-07T10:11:57;101496.16;;;22.31
63689;BMP280;54895;40.928;14.480;2024-03-07T10:14:24;101494.06;;;22.81
63689;BMP280;54895;40.928;14.480;2024-03-07T10:16:54;101496.16;;;22.31
63689;BMP280;54895;40.928;14.480;2024-03-07T10:19:22;101513.56;;;20.94
63689;BMP280;54895;40.928;14.480;2024-03-07T10:21:49;101511.97;;;23.61
63689;BMP280;54895;40.928;14.480;2024-03-07T10:24:24;101519.88;;;21.53
63689;BMP280;54895;40.928;14.480;2024-03-07T10:26:50;101515.97;;;21.94
63689;BMP280;54895;40.928;14.480;2024-03-07T10:29:17;101522.34;;;22.99
63689;BMP280;54895;40.928;14.480;2024-03-07T10:31:44;101524.34;;;22.99
63689;BMP280;54895;40.928;14.480;2024-03-07T10:34:12;101525.03;;;25.76
63689;BMP280;54895;40.928;14.480;2024-03-07T10:36:38;101523.75;;;25.91
63689;BMP280;54895;40.928;14.480;2024-03-07T10:39:06;101516.97;;;26.05
63689;BMP280;54895;40.928;14.480;2024-03-07T10:41:45;101517.50;;;24.18
63689;BMP280;54895;40.928;14.480;2024-03-07T10:44:19;101516.91;;;22.99
63689;BMP280;54895;40.928;14.480;2024-03-07T10:46:52;101512.56;;;21.27
63689;BMP280;54895;40.928;14.480;2024-03-07T10:49:20;101511.25;;;21.00
63689;BMP280;54895;40.928;14.480;2024-03-07T10:52:13;101503.28;;;23.30
63689;BMP280;54895;40.928;14.480;2024-03-07T10:55:15;101506.69;;;23.97
63689;BMP280;54895;40.928;14.480;2024-03-07T10:57:49;101512.16;;;23.85
63689;BMP280;54895;40.928;14.480;2024-03-07T11:00:17;101505.38;;;24.67
63689;BMP280;54895;40.928;14.480;2024-03-07T11:02:56;101495.75;;;24.18
63689;BMP280;54895;40.928;14.480;2024-03-07T11:05:26;101506.84;;;25.42
63689;BMP280;54895;40.928;14.480;2024-03-07T11:07:58;101497.03;;;23.82
63689;BMP280;54895;40.928;14.480;2024-03-07T11:10:25;101494.75;;;25.20
63689;BMP280;54895;40.928;14.480;2024-03-07T11:12:51;101494.88;;;23.37
63689;BMP280;54895;40.928;14.480;2024-03-07T11:15:19;101484.84;;;25.90
63689;BMP280;54895;40.928;14.480;2024-03-07T11:17:50;101490.91;;;26.02
63689;BMP280;54895;40.928;14.480;2024-03-07T11:20:24;101490.47;;;26.48
63689;BMP280;54895;40.928;14.480;2024-03-07T11:22:51;101487.50;;;22.75
63689;BMP280;54895;40.928;14.480;2024-03-07T11:25:22;101474.34;;;22.60
63689;BMP280;54895;40.928;14.480;2024-03-07T11:27:56;101478.78;;;22.97
63689;BMP280;54895;40.928;14.480;2024-03-07T11:30:23;101464.34;;;23.04
63689;BMP280;54895;40.928;14.480;2024-03-07T11:32:51;101471.41;;;23.42
63689;BMP280;54895;40.928;14.480;2024-03-07T11:35:31;101483.22;;;24.13
63689;BMP280;54895;40.928;14.480;2024-03-07T11:37:59;101471.63;;;24.01
63689;BMP280;54895;40.928;14.480;2024-03-07T11:42:53;101469.72;;;24.15
63689;BMP280;54895;40.928;14.480;2024-03-07T11:45:20;101480.41;;;24.70
63689;BMP280;54895;40.928;14.480;2024-03-07T11:47:57;101468.72;;;22.88
63689;BMP280;54895;40.928;14.480;2024-03-07T11:50:26;101467.94;;;22.76
63689;BMP280;54895;40.928;14.480;2024-03-07T11:52:54;101459.97;;;22.18
63689;BMP280;54895;40.928;14.480;2024-03-07T11:55:21;101469.66;;;22.51
63689;BMP280;54895;40.928;14.480;2024-03-07T11:57:49;101470.22;;;23.12
63689;BMP280;54895;40.928;14.480;2024-03-07T12:00:20;101465.63;;;23.36
63689;BMP280;54895;40.928;14.480;2024-03-07T12:02:50;101462.63;;;22.99
63689;BMP280;54895;40.928;14.480;2024-03-07T12:05:20;101473.75;;;23.03
63689;BMP280;54895;40.928;14.480;2024-03-07T12:07:46;101487.44;;;24.04
63689;BMP280;54895;40.928;14.480;2024-03-07T12:10:13;101467.53;;;23.56
63689;BMP280;54895;40.928;14.480;2024-03-07T12:12:39;101470.69;;;23.85
63689;BMP280;54895;40.928;14.480;2024-03-07T12:15:07;101462.50;;;22.76
63689;BMP280;54895;40.928;14.480;2024-03-07T12:17:46;101465.94;;;22.26
63689;BMP280;54895;40.928;14.480;2024-03-07T12:20:18;101473.66;;;22.20
63689;BMP280;54895;40.928;14.480;2024-03-07T12:22:51;101463.81;;;25.79
63689;BMP280;54895;40.928;14.480;2024-03-07T12:25:22;101465.16;;;21.26
63689;BMP280;54895;40.928;14.480;2024-03-07T12:28:11;101459.53;;;24.27
63689;BMP280;54895;40.928;14.480;2024-03-07T12:30:49;101459.81;;;24.19
63689;BMP280;54895;40.928;14.480;2024-03-07T12:33:17;101462.34;;;21.93
63689;BMP280;54895;40.928;14.480;2024-03-07T12:35:45;101455.22;;;23.00
63689;BMP280;54895;40.928;14.480;2024-03-07T12:38:12;101454.88;;;21.25
63689;BMP280;54895;40.928;14.480;2024-03-07T12:40:41;101453.00;;;21.65
63689;BMP280;54895;40.928;14.480;2024-03-07T12:43:20;101453.59;;;22.04
63689;BMP280;54895;40.928;14.480;2024-03-07T12:45:51;101460.69;;;21.69
63689;BMP280;54895;40.928;14.480;2024-03-07T12:48:18;101458.16;;;25.75
63689;BMP280;54895;40.928;14.480;2024-03-07T12:50:48;101454.88;;;23.05
63689;BMP280;54895;40.928;14.480;2024-03-07T12:53:20;101462.19;;;23.35
63689;BMP280;54895;40.928;14.480;2024-03-07T12:55:48;101447.91;;;23.46
63689;BMP280;54895;40.928;14.480;2024-03-07T12:58:15;101448.84;;;23.39
63689;BMP280;54895;40.928;14.480;2024-03-07T13:00:42;101438.69;;;22.75
63689;BMP280;54895;40.928;14.480;2024-03-07T13:03:10;101441.19;;;22.61
63689;BMP280;54895;40.928;14.480;2024-03-07T13:05:37;101439.06;;;22.60
63689;BMP280;54895;40.928;14.480;2024-03-07T13:08:07;101443.44;;;23.51
63689;BMP280;54895;40.928;14.480;2024-03-07T13:10:40;101441.94;;;23.71
63689;BMP280;54895;40.928;14.480;2024-03-07T13:13:08;101443.44;;;23.62
63689;BMP280;54895;40.928;14.480;2024-03-07T13:15:40;101444.84;;;27.24
63689;BMP280;54895;40.928;14.480;2024-03-07T13:18:08;101446.38;;;24.58
63689;BMP280;54895;40.928;14.480;2024-03-07T13:20:35;101444.81;;;22.75
63689;BMP280;54895;40.928;14.480;2024-03-07T13:23:02;101436.53;;;22.73
63689;BMP280;54895;40.928;14.480;2024-03-07T13:25:29;101441.31;;;22.84
63689;BMP280;54895;40.928;14.480;2024-03-07T13:30:26;101445.19;;;24.61
63689;BMP280;54895;40.928;14.480;2024-03-07T13:32:59;101438.28;;;23.77
63689;BMP280;54895;40.928;14.480;2024-03-07T13:35:26;101435.69;;;23.79
63689;BMP280;54895;40.928;14.480;2024-03-07T13:37:54;101432.28;;;25.49
63689;BMP280;54895;40.928;14.480;2024-03-07T13:40:26;101430.25;;;23.68
63689;BMP280;54895;40.928;14.480;2024-03-07T13:42:54;101426.91;;;24.04
63689;BMP280;54895;40.928;14.480;2024-03-07T13:45:26;101434.59;;;24.67
63689;BMP280;54895;40.928;14.480;2024-03-07T13:47:54;101429.94;;;24.81
63689;BMP280;54895;40.928;14.480;2024-03-07T13:50:22;101432.94;;;25.61
63689;BMP280;54895;40.928;14.480;2024-03-07T13:52:53;101429.75;;;23.94
63689;BMP280;54895;40.928;14.480;2024-03-07T14:01:02;101428.09;;;23.67
63689;BMP280;54895;40.928;14.480;2024-03-07T14:13:02;101431.19;;;23.61
63689;BMP280;54895;40.928;14.480;2024-03-07T14:24:16;101429.09;;;25.93
63689;BMP280;54895;40.928;14.480;2024-03-07T14:32:31;101432.78;;;25.08